sensor_id;sensor_type;location;lat;lon;timestamp;P1;durP1;ratioP1;P2;durP2;ratioP2
68985;SDS011;56035;37.534;-122.308;2024-03-22T00:04:13;1.58;;;0.40;;
68985;SDS011;56035;37.534;-122.308;2024-03-22T00:06:43;2.30;;;0.60;;
68985;SDS011;56035;37.534;-122.308;2024-03-22T00:09:11;1.98;;;0.60;;
68985;SDS011;56035;37.534;-122.308;2024-03-22T00:11:41;2.90;;;0.80;;
68985;SDS011;56035;37.534;-122.308;2024-03-22T00:14:09;1.80;;;0.93;;
68985;SDS011;56035;37.534;-122.308;2024-03-22T00:16:42;3.08;;;0.57;;
68985;SDS011;56035;37.534;-122.308;2024-03-22T00:19:09;3.05;;;0.70;;
68985;SDS011;56035;37.534;-122.308;2024-03-22T00:21:36;1.45;;;0.50;;
68985;SDS011;56035;37.534;-122.308;2024-03-22T00:24:07;2.22;;;0.50;;
68985;SDS011;56035;37.534;-122.308;2024-03-22T00:26:34;2.25;;;0.60;;
68985;SDS011;56035;37.534;-122.308;2024-03-22T00:29:00;4.03;;;0.90;;
68985;SDS011;56035;37.534;-122.308;2024-03-22T00:33:53;2.20;;;0.50;;
68985;SDS011;56035;37.534;-122.308;2024-03-22T00:36:20;1.98;;;0.35;;
68985;SDS011;56035;37.534;-122.308;2024-03-22T00:38:46;2.00;;;0.68;;
68985;SDS011;56035;37.534;-122.308;2024-03-22T00:41:12;1.10;;;0.50;;
68985;SDS011;56035;37.534;-122.308;2024-03-22T00:43:39;1.23;;;0.50;;
68985;SDS011;56035;37.534;-122.308;2024-03-22T00:46:05;1.70;;;0.52;;
68985;SDS011;56035;37.534;-122.308;2024-03-22T00:48:33;2.10;;;0.32;;
68985;SDS011;56035;37.534;-122.308;2024-03-22T00:51:00;1.60;;;0.38;;
68985;SDS011;56035;37.534;-122.308;2024-03-22T00:53:27;3.22;;;0.57;;
68985;SDS011;56035;37.534;-122.308;2024-03-22T00:55:54;1.98;;;0.40;;
68985;SDS011;56035;37.534;-122.308;2024-03-22T00:58:24;3.08;;;0.40;;
68985;SDS011;56035;37.534;-122.308;2024-03-22T01:00:52;1.90;;;0.50;;
68985;SDS011;56035;37.534;-122.308;2024-03-22T01:03:19;1.95;;;0.30;;
68985;SDS011;56035;37.534;-122.308;2024-03-22T01:05:46;2.13;;;0.50;;
68985;SDS011;56035;37.534;-122.308;2024-03-22T01:08:14;1.63;;;0.50;;
68985;SDS011;56035;37.534;-122.308;2024-03-22T01:10:43;2.05;;;0.50;;
68985;SDS011;56035;37.534;-122.308;2024-03-22T01:13:10;2.72;;;0.40;;
68985;SDS011;56035;37.534;-122.308;2024-03-22T01:15:40;1.75;;;0.40;;
68985;SDS011;56035;37.534;-122.308;2024-03-22T01:18:12;1.13;;;0.30;;
68985;SDS011;56035;37.534;-122.308;2024-03-22T01:20:38;2.17;;;0.50;;
68985;SDS011;56035;37.534;-122.308;2024-03-22T01:23:05;1.33;;;0.30;;
68985;SDS011;56035;37.534;-122.308;2024-03-22T01:25:32;1.48;;;0.50;;
68985;SDS011;56035;37.534;-122.308;2024-03-22T01:28:01;3.47;;;0.60;;
68985;SDS011;56035;37.534;-122.308;2024-03-22T01:30:29;1.93;;;0.50;;
68985;SDS011;56035;37.534;-122.308;2024-03-22T01:32:56;1.90;;;0.40;;
68985;SDS011;56035;37.534;-122.308;2024-03-22T01:35:26;3.13;;;0.75;;
68985;SDS011;56035;37.534;-122.308;2024-03-22T01:37:53;1.65;;;0.40;;
68985;SDS011;56035;37.534;-122.308;2024-03-22T01:40:21;1.00;;;0.30;;
68985;SDS011;56035;37.534;-122.308;2024-03-22T01:42:52;0.87;;;0.30;;
68985;SDS011;56035;37.534;-122.308;2024-03-22T01:45:22;1.30;;;0.30;;
68985;SDS011;56035;37.534;-122.308;2024-03-22T01:47:52;1.67;;;0.50;;
68985;SDS011;56035;37.534;-122.308;2024-03-22T01:50:22;2.60;;;0.60;;
68985;SDS011;56035;37.534;-122.308;2024-03-22T01:52:52;1.25;;;0.40;;
68985;SDS011;56035;37.534;-122.308;2024-03-22T01:55:21;3.53;;;0.93;;
68985;SDS011;56035;37.534;-122.308;2024-03-22T01:57:49;2.15;;;0.50;;
68985;SDS011;56035;37.534;-122.308;2024-03-22T02:00:19;3.33;;;0.50;;
68985;SDS011;56035;37.534;-122.308;2024-03-22T02:02:48;1.98;;;0.40;;
68985;SDS011;56035;37.534;-122.308;2024-03-22T02:05:17;2.50;;;0.70;;
68985;SDS011;56035;37.534;-122.308;2024-03-22T02:07:48;2.27;;;0.50;;
68985;SDS011;56035;37.534;-122.308;2024-03-22T02:10:15;1.67;;;0.30;;
68985;SDS011;56035;37.534;-122.308;2024-03-22T02:12:43;2.60;;;0.50;;
68985;SDS011;56035;37.534;-122.308;2024-03-22T02:15:10;4.40;;;0.97;;
68985;SDS011;56035;37.534;-122.308;2024-03-22T02:17:37;3.07;;;0.50;;
68985;SDS011;56035;37.534;-122.308;2024-03-22T02:20:05;2.03;;;0.67;;
68985;SDS011;56035;37.534;-122.308;2024-03-22T02:22:34;2.67;;;0.60;;
68985;SDS011;56035;37.534;-122.308;2024-03-22T02:25:03;4.23;;;0.90;;
68985;SDS011;56035;37.534;-122.308;2024-03-22T02:27:34;2.83;;;0.60;;
68985;SDS011;56035;37.534;-122.308;2024-03-22T02:30:01;1.77;;;0.60;;
68985;SDS011;56035;37.534;-122.308;2024-03-22T02:32:28;2.40;;;0.80;;
68985;SDS011;56035;37.534;-122.308;2024-03-22T02:37:25;3.13;;;0.70;;
68985;SDS011;56035;37.534;-122.308;2024-03-22T02:39:53;1.60;;;0.60;;
68985;SDS011;56035;37.534;-122.308;2024-03-22T02:42:20;2.70;;;0.40;;
68985;SDS011;56035;37.534;-122.308;2024-03-22T02:44:47;2.10;;;0.47;;
68985;SDS011;56035;37.534;-122.308;2024-03-22T02:49:41;1.87;;;0.60;;
68985;SDS011;56035;37.534;-122.308;2024-03-22T02:52:08;4.80;;;0.70;;
68985;SDS011;56035;37.534;-122.308;2024-03-22T02:54:36;4.33;;;0.60;;
68985;SDS011;56035;37.534;-122.308;2024-03-22T02:57:07;2.60;;;0.77;;
68985;SDS011;56035;37.534;-122.308;2024-03-22T02:59:35;4.90;;;0.80;;
68985;SDS011;56035;37.534;-122.308;2024-03-22T03:02:02;2.93;;;1.17;;
68985;SDS011;56035;37.534;-122.308;2024-03-22T03:04:29;4.27;;;0.90;;
68985;SDS011;56035;37.534;-122.308;2024-03-22T03:06:56;3.80;;;0.90;;
68985;SDS011;56035;37.534;-122.308;2024-03-22T03:09:23;4.97;;;1.00;;
68985;SDS011;56035;37.534;-122.308;2024-03-22T03:11:50;4.57;;;1.00;;
68985;SDS011;56035;37.534;-122.308;2024-03-22T03:14:22;3.10;;;0.80;;
68985;SDS011;56035;37.534;-122.308;2024-03-22T03:16:49;2.70;;;0.80;;
68985;SDS011;56035;37.534;-122.308;2024-03-22T03:19:16;4.60;;;1.07;;
68985;SDS011;56035;37.534;-122.308;2024-03-22T03:21:43;5.05;;;1.38;;
68985;SDS011;56035;37.534;-122.308;2024-03-22T03:24:10;2.00;;;0.60;;
68985;SDS011;56035;37.534;-122.308;2024-03-22T03:26:37;2.35;;;0.60;;
68985;SDS011;56035;37.534;-122.308;2024-03-22T03:29:06;3.37;;;0.90;;
68985;SDS011;56035;37.534;-122.308;2024-03-22T03:31:33;2.97;;;0.60;;
68985;SDS011;56035;37.534;-122.308;2024-03-22T03:34:00;2.92;;;0.70;;
68985;SDS011;56035;37.534;-122.308;2024-03-22T03:38:53;2.47;;;0.60;;
68985;SDS011;56035;37.534;-122.308;2024-03-22T03:43:47;2.67;;;0.50;;
68985;SDS011;56035;37.534;-122.308;2024-03-22T03:46:14;4.03;;;0.97;;
68985;SDS011;56035;37.534;-122.308;2024-03-22T03:48:41;3.40;;;0.65;;
68985;SDS011;56035;37.534;-122.308;2024-03-22T03:51:08;2.00;;;0.80;;
68985;SDS011;56035;37.534;-122.308;2024-03-22T03:56:01;5.90;;;0.70;;
68985;SDS011;56035;37.534;-122.308;2024-03-22T04:00:55;3.47;;;0.70;;
68985;SDS011;56035;37.534;-122.308;2024-03-22T04:03:22;2.67;;;0.70;;
68985;SDS011;56035;37.534;-122.308;2024-03-22T04:05:58;3.37;;;1.03;;
68985;SDS011;56035;37.534;-122.308;2024-03-22T04:08:25;3.23;;;0.90;;
68985;SDS011;56035;37.534;-122.308;2024-03-22T04:10:53;3.10;;;0.70;;
68985;SDS011;56035;37.534;-122.308;2024-03-22T04:13:24;2.10;;;0.60;;
68985;SDS011;56035;37.534;-122.308;2024-03-22T04:15:51;3.43;;;0.90;;
68985;SDS011;56035;37.534;-122.308;2024-03-22T04:18:19;2.20;;;0.60;;
68985;SDS011;56035;37.534;-122.308;2024-03-22T04:20:55;2.40;;;0.70;;
68985;SDS011;56035;37.534;-122.308;2024-03-22T04:23:22;3.08;;;0.68;;
68985;SDS011;56035;37.534;-122.308;2024-03-22T04:28:20;3.53;;;0.70;;
68985;SDS011;56035;37.534;-122.308;2024-03-22T04:31:02;2.80;;;0.70;;
68985;SDS011;56035;37.534;-122.308;2024-03-22T04:33:30;3.07;;;0.70;;
68985;SDS011;56035;37.534;-122.308;2024-03-22T04:35:58;1.80;;;0.80;;
68985;SDS011;56035;37.534;-122.308;2024-03-22T04:38:25;2.10;;;0.60;;
68985;SDS011;56035;37.534;-122.308;2024-03-22T04:43:18;1.27;;;0.60;;
68985;SDS011;56035;37.534;-122.308;2024-03-22T04:45:44;2.00;;;0.65;;
68985;SDS011;56035;37.534;-122.308;2024-03-22T04:48:12;2.73;;;0.70;;
68985;SDS011;56035;37.534;-122.308;2024-03-22T04:50:39;4.47;;;0.70;;
68985;SDS011;56035;37.534;-122.308;2024-03-22T04:53:06;2.42;;;1.10;;
68985;SDS011;56035;37.534;-122.308;2024-03-22T04:55:32;3.50;;;0.90;;
68985;SDS011;56035;37.534;-122.308;2024-03-22T04:57:59;1.23;;;0.60;;
68985;SDS011;56035;37.534;-122.308;2024-03-22T05:00:26;3.28;;;0.60;;
68985;SDS011;56035;37.534;-122.308;2024-03-22T05:03:11;4.47;;;0.80;;
68985;SDS011;56035;37.534;-122.308;2024-03-22T05:05:37;3.67;;;0.60;;
68985;SDS011;56035;37.534;-122.308;2024-03-22T05:08:04;3.80;;;1.23;;
68985;SDS011;56035;37.534;-122.308;2024-03-22T05:10:31;1.80;;;0.90;;
68985;SDS011;56035;37.534;-122.308;2024-03-22T05:12:58;2.35;;;1.10;;
68985;SDS011;56035;37.534;-122.308;2024-03-22T05:15:25;2.72;;;1.08;;
68985;SDS011;56035;37.534;-122.308;2024-03-22T05:17:52;3.67;;;0.85;;
68985;SDS011;56035;37.534;-122.308;2024-03-22T05:20:19;3.05;;;1.00;;
68985;SDS011;56035;37.534;-122.308;2024-03-22T05:22:46;3.67;;;1.20;;
68985;SDS011;56035;37.534;-122.308;2024-03-22T05:25:13;5.10;;;1.10;;
68985;SDS011;56035;37.534;-122.308;2024-03-22T05:27:43;3.93;;;1.13;;
68985;SDS011;56035;37.534;-122.308;2024-03-22T05:30:10;2.00;;;0.80;;
68985;SDS011;56035;37.534;-122.308;2024-03-22T05:32:38;4.60;;;1.00;;
68985;SDS011;56035;37.534;-122.308;2024-03-22T05:35:05;2.27;;;0.70;;
68985;SDS011;56035;37.534;-122.308;2024-03-22T05:37:32;3.90;;;0.90;;
68985;SDS011;56035;37.534;-122.308;2024-03-22T05:40:02;2.03;;;0.83;;
68985;SDS011;56035;37.534;-122.308;2024-03-22T05:42:32;2.87;;;0.80;;
68985;SDS011;56035;37.534;-122.308;2024-03-22T05:44:58;3.13;;;1.00;;
68985;SDS011;56035;37.534;-122.308;2024-03-22T05:47:24;2.80;;;0.80;;
68985;SDS011;56035;37.534;-122.308;2024-03-22T05:49:51;3.30;;;0.85;;
68985;SDS011;56035;37.534;-122.308;2024-03-22T05:52:17;4.80;;;1.17;;
68985;SDS011;56035;37.534;-122.308;2024-03-22T05:54:44;2.92;;;0.77;;
68985;SDS011;56035;37.534;-122.308;2024-03-22T05:57:11;1.88;;;0.85;;
68985;SDS011;56035;37.534;-122.308;2024-03-22T05:59:37;3.08;;;0.85;;
68985;SDS011;56035;37.534;-122.308;2024-03-22T06:02:04;3.92;;;0.90;;
68985;SDS011;56035;37.534;-122.308;2024-03-22T06:04:30;4.73;;;0.97;;
68985;SDS011;56035;37.534;-122.308;2024-03-22T06:06:57;3.42;;;1.00;;
68985;SDS011;56035;37.534;-122.308;2024-03-22T06:09:27;3.27;;;0.90;;
68985;SDS011;56035;37.534;-122.308;2024-03-22T06:12:05;3.65;;;0.80;;
68985;SDS011;56035;37.534;-122.308;2024-03-22T06:14:32;2.90;;;1.00;;
68985;SDS011;56035;37.534;-122.308;2024-03-22T06:16:59;5.07;;;1.30;;
68985;SDS011;56035;37.534;-122.308;2024-03-22T06:19:25;3.95;;;0.98;;
68985;SDS011;56035;37.534;-122.308;2024-03-22T06:21:51;3.25;;;1.70;;
68985;SDS011;56035;37.534;-122.308;2024-03-22T06:24:18;3.78;;;0.93;;
68985;SDS011;56035;37.534;-122.308;2024-03-22T06:26:44;3.95;;;1.30;;
68985;SDS011;56035;37.534;-122.308;2024-03-22T06:29:10;3.10;;;1.23;;
68985;SDS011;56035;37.534;-122.308;2024-03-22T06:34:03;3.63;;;0.90;;
68985;SDS011;56035;37.534;-122.308;2024-03-22T06:36:33;3.83;;;1.25;;
68985;SDS011;56035;37.534;-122.308;2024-03-22T06:38:59;3.60;;;1.13;;
68985;SDS011;56035;37.534;-122.308;2024-03-22T06:41:27;2.92;;;1.13;;
68985;SDS011;56035;37.534;-122.308;2024-03-22T06:43:53;4.30;;;1.10;;
68985;SDS011;56035;37.534;-122.308;2024-03-22T06:46:20;2.80;;;0.95;;
68985;SDS011;56035;37.534;-122.308;2024-03-22T06:48:46;3.60;;;1.30;;
68985;SDS011;56035;37.534;-122.308;2024-03-22T06:51:13;5.88;;;1.17;;
68985;SDS011;56035;37.534;-122.308;2024-03-22T06:53:39;3.30;;;1.48;;
68985;SDS011;56035;37.534;-122.308;2024-03-22T06:56:05;2.72;;;1.35;;
68985;SDS011;56035;37.534;-122.308;2024-03-22T06:58:35;3.17;;;1.10;;
68985;SDS011;56035;37.534;-122.308;2024-03-22T07:01:02;4.03;;;1.23;;
68985;SDS011;56035;37.534;-122.308;2024-03-22T07:05:55;4.03;;;1.27;;
68985;SDS011;56035;37.534;-122.308;2024-03-22T07:08:23;4.60;;;1.17;;
68985;SDS011;56035;37.534;-122.308;2024-03-22T07:10:50;3.85;;;1.08;;
68985;SDS011;56035;37.534;-122.308;2024-03-22T07:13:18;3.83;;;1.23;;
68985;SDS011;56035;37.534;-122.308;2024-03-22T07:18:13;2.93;;;1.10;;
68985;SDS011;56035;37.534;-122.308;2024-03-22T07:20:40;2.78;;;1.00;;
68985;SDS011;56035;37.534;-122.308;2024-03-22T07:23:07;3.23;;;1.03;;
68985;SDS011;56035;37.534;-122.308;2024-03-22T07:25:34;4.00;;;1.20;;
68985;SDS011;56035;37.534;-122.308;2024-03-22T07:28:00;3.17;;;0.95;;
68985;SDS011;56035;37.534;-122.308;2024-03-22T07:30:26;2.67;;;1.40;;
68985;SDS011;56035;37.534;-122.308;2024-03-22T07:32:53;2.88;;;1.27;;
68985;SDS011;56035;37.534;-122.308;2024-03-22T07:35:19;2.88;;;0.98;;
68985;SDS011;56035;37.534;-122.308;2024-03-22T07:37:46;3.33;;;1.05;;
68985;SDS011;56035;37.534;-122.308;2024-03-22T07:40:12;3.53;;;1.17;;
68985;SDS011;56035;37.534;-122.308;2024-03-22T07:42:38;6.65;;;1.60;;
68985;SDS011;56035;37.534;-122.308;2024-03-22T07:45:05;2.70;;;1.00;;
68985;SDS011;56035;37.534;-122.308;2024-03-22T07:47:31;3.58;;;1.15;;
68985;SDS011;56035;37.534;-122.308;2024-03-22T07:49:59;4.17;;;1.10;;
68985;SDS011;56035;37.534;-122.308;2024-03-22T07:52:25;3.50;;;1.00;;
68985;SDS011;56035;37.534;-122.308;2024-03-22T07:54:52;5.22;;;1.35;;
68985;SDS011;56035;37.534;-122.308;2024-03-22T07:57:18;3.65;;;1.10;;
68985;SDS011;56035;37.534;-122.308;2024-03-22T07:59:45;2.67;;;1.00;;
68985;SDS011;56035;37.534;-122.308;2024-03-22T08:02:12;3.23;;;1.00;;
68985;SDS011;56035;37.534;-122.308;2024-03-22T08:04:39;5.82;;;1.40;;
68985;SDS011;56035;37.534;-122.308;2024-03-22T08:07:05;3.92;;;1.17;;
68985;SDS011;56035;37.534;-122.308;2024-03-22T08:09:31;3.58;;;1.00;;
68985;SDS011;56035;37.534;-122.308;2024-03-22T08:11:58;4.20;;;1.10;;
68985;SDS011;56035;37.534;-122.308;2024-03-22T08:14:25;3.17;;;1.20;;
68985;SDS011;56035;37.534;-122.308;2024-03-22T08:16:51;4.22;;;1.00;;
68985;SDS011;56035;37.534;-122.308;2024-03-22T08:19:17;4.95;;;1.30;;
68985;SDS011;56035;37.534;-122.308;2024-03-22T08:21:44;3.05;;;1.30;;
68985;SDS011;56035;37.534;-122.308;2024-03-22T08:24:10;4.25;;;1.63;;
68985;SDS011;56035;37.534;-122.308;2024-03-22T08:26:36;2.97;;;1.38;;
68985;SDS011;56035;37.534;-122.308;2024-03-22T08:29:03;3.35;;;1.50;;
68985;SDS011;56035;37.534;-122.308;2024-03-22T08:31:30;5.00;;;1.50;;
68985;SDS011;56035;37.534;-122.308;2024-03-22T08:33:57;2.83;;;1.60;;
68985;SDS011;56035;37.534;-122.308;2024-03-22T08:36:23;3.47;;;1.65;;
68985;SDS011;56035;37.534;-122.308;2024-03-22T08:38:50;3.42;;;1.58;;
68985;SDS011;56035;37.534;-122.308;2024-03-22T08:41:16;3.35;;;1.25;;
68985;SDS011;56035;37.534;-122.308;2024-03-22T08:43:43;5.25;;;1.55;;
68985;SDS011;56035;37.534;-122.308;2024-03-22T08:46:10;3.83;;;1.90;;
68985;SDS011;56035;37.534;-122.308;2024-03-22T08:48:37;4.50;;;1.73;;
68985;SDS011;56035;37.534;-122.308;2024-03-22T08:51:05;4.23;;;1.70;;
68985;SDS011;56035;37.534;-122.308;2024-03-22T08:53:31;5.28;;;1.80;;
68985;SDS011;56035;37.534;-122.308;2024-03-22T08:55:58;4.03;;;1.70;;
68985;SDS011;56035;37.534;-122.308;2024-03-22T08:58:24;4.10;;;1.50;;
68985;SDS011;56035;37.534;-122.308;2024-03-22T09:00:51;3.38;;;1.30;;
68985;SDS011;56035;37.534;-122.308;2024-03-22T09:03:17;4.25;;;1.20;;
68985;SDS011;56035;37.534;-122.308;2024-03-22T09:05:44;4.05;;;1.38;;
68985;SDS011;56035;37.534;-122.308;2024-03-22T09:08:10;2.00;;;1.08;;
68985;SDS011;56035;37.534;-122.308;2024-03-22T09:10:36;3.00;;;1.25;;
68985;SDS011;56035;37.534;-122.308;2024-03-22T09:13:03;3.25;;;1.02;;
68985;SDS011;56035;37.534;-122.308;2024-03-22T09:15:29;3.33;;;1.08;;
68985;SDS011;56035;37.534;-122.308;2024-03-22T09:17:56;7.80;;;1.75;;
68985;SDS011;56035;37.534;-122.308;2024-03-22T09:20:22;4.15;;;1.23;;
68985;SDS011;56035;37.534;-122.308;2024-03-22T09:22:49;5.05;;;1.30;;
68985;SDS011;56035;37.534;-122.308;2024-03-22T09:25:15;2.60;;;0.98;;
68985;SDS011;56035;37.534;-122.308;2024-03-22T09:27:41;3.55;;;1.20;;
68985;SDS011;56035;37.534;-122.308;2024-03-22T09:30:08;3.85;;;1.13;;
68985;SDS011;56035;37.534;-122.308;2024-03-22T09:32:35;2.80;;;1.00;;
68985;SDS011;56035;37.534;-122.308;2024-03-22T09:35:01;3.83;;;1.02;;
68985;SDS011;56035;37.534;-122.308;2024-03-22T09:37:27;5.13;;;1.20;;
68985;SDS011;56035;37.534;-122.308;2024-03-22T09:39:54;2.03;;;1.10;;
68985;SDS011;56035;37.534;-122.308;2024-03-22T09:42:21;3.45;;;1.13;;
68985;SDS011;56035;37.534;-122.308;2024-03-22T09:44:50;4.00;;;1.30;;
68985;SDS011;56035;37.534;-122.308;2024-03-22T09:47:17;3.55;;;1.27;;
68985;SDS011;56035;37.534;-122.308;2024-03-22T09:49:46;3.97;;;1.27;;
68985;SDS011;56035;37.534;-122.308;2024-03-22T09:52:14;8.10;;;1.70;;
68985;SDS011;56035;37.534;-122.308;2024-03-22T09:54:44;6.77;;;1.40;;
68985;SDS011;56035;37.534;-122.308;2024-03-22T09:57:31;4.70;;;1.30;;
68985;SDS011;56035;37.534;-122.308;2024-03-22T09:59:57;4.35;;;1.40;;
68985;SDS011;56035;37.534;-122.308;2024-03-22T10:04:51;8.77;;;1.90;;
68985;SDS011;56035;37.534;-122.308;2024-03-22T10:07:18;6.03;;;2.00;;
68985;SDS011;56035;37.534;-122.308;2024-03-22T10:09:44;8.45;;;2.20;;
68985;SDS011;56035;37.534;-122.308;2024-03-22T10:12:11;8.87;;;1.97;;
68985;SDS011;56035;37.534;-122.308;2024-03-22T10:14:38;5.40;;;1.52;;
68985;SDS011;56035;37.534;-122.308;2024-03-22T10:17:08;6.23;;;1.57;;
68985;SDS011;56035;37.534;-122.308;2024-03-22T10:19:35;5.03;;;1.80;;
68985;SDS011;56035;37.534;-122.308;2024-03-22T10:22:02;4.63;;;1.60;;
68985;SDS011;56035;37.534;-122.308;2024-03-22T10:24:29;5.97;;;1.63;;
68985;SDS011;56035;37.534;-122.308;2024-03-22T10:26:57;5.37;;;1.40;;
68985;SDS011;56035;37.534;-122.308;2024-03-22T10:29:23;8.02;;;1.60;;
68985;SDS011;56035;37.534;-122.308;2024-03-22T10:31:51;6.78;;;1.70;;
68985;SDS011;56035;37.534;-122.308;2024-03-22T10:34:18;4.90;;;1.50;;
68985;SDS011;56035;37.534;-122.308;2024-03-22T10:36:47;4.37;;;1.70;;
68985;SDS011;56035;37.534;-122.308;2024-03-22T10:39:15;5.78;;;1.60;;
68985;SDS011;56035;37.534;-122.308;2024-03-22T10:41:45;5.83;;;1.33;;
68985;SDS011;56035;37.534;-122.308;2024-03-22T10:44:14;7.33;;;1.70;;
68985;SDS011;56035;37.534;-122.308;2024-03-22T10:46:45;7.60;;;1.60;;
68985;SDS011;56035;37.534;-122.308;2024-03-22T10:49:15;7.50;;;1.47;;
68985;SDS011;56035;37.534;-122.308;2024-03-22T10:51:44;4.43;;;1.63;;
68985;SDS011;56035;37.534;-122.308;2024-03-22T10:54:24;7.83;;;1.50;;
68985;SDS011;56035;37.534;-122.308;2024-03-22T10:56:52;5.47;;;1.60;;
68985;SDS011;56035;37.534;-122.308;2024-03-22T10:59:19;8.83;;;1.33;;
68985;SDS011;56035;37.534;-122.308;2024-03-22T11:01:48;4.93;;;1.40;;
68985;SDS011;56035;37.534;-122.308;2024-03-22T11:04:19;8.37;;;1.60;;
68985;SDS011;56035;37.534;-122.308;2024-03-22T11:06:49;5.93;;;1.30;;
68985;SDS011;56035;37.534;-122.308;2024-03-22T11:09:22;6.27;;;1.60;;
68985;SDS011;56035;37.534;-122.308;2024-03-22T11:11:51;4.80;;;1.10;;
68985;SDS011;56035;37.534;-122.308;2024-03-22T11:14:18;3.50;;;1.23;;
68985;SDS011;56035;37.534;-122.308;2024-03-22T11:16:46;6.33;;;1.70;;
68985;SDS011;56035;37.534;-122.308;2024-03-22T11:19:13;6.27;;;1.50;;
68985;SDS011;56035;37.534;-122.308;2024-03-22T11:21:39;6.10;;;1.20;;
68985;SDS011;56035;37.534;-122.308;2024-03-22T11:24:05;4.55;;;1.40;;
68985;SDS011;56035;37.534;-122.308;2024-03-22T11:26:32;10.32;;;1.75;;
68985;SDS011;56035;37.534;-122.308;2024-03-22T11:28:59;6.07;;;2.03;;
68985;SDS011;56035;37.534;-122.308;2024-03-22T11:31:26;3.72;;;1.25;;
68985;SDS011;56035;37.534;-122.308;2024-03-22T11:33:53;5.17;;;1.20;;
68985;SDS011;56035;37.534;-122.308;2024-03-22T11:36:20;4.63;;;1.47;;
68985;SDS011;56035;37.534;-122.308;2024-03-22T11:41:18;5.47;;;1.20;;
68985;SDS011;56035;37.534;-122.308;2024-03-22T11:43:48;4.57;;;1.13;;
68985;SDS011;56035;37.534;-122.308;2024-03-22T11:46:16;3.80;;;1.20;;
68985;SDS011;56035;37.534;-122.308;2024-03-22T11:48:42;3.22;;;1.08;;
68985;SDS011;56035;37.534;-122.308;2024-03-22T11:51:09;3.83;;;1.10;;
68985;SDS011;56035;37.534;-122.308;2024-03-22T11:53:35;2.90;;;1.10;;
68985;SDS011;56035;37.534;-122.308;2024-03-22T11:58:30;4.40;;;1.37;;
68985;SDS011;56035;37.534;-122.308;2024-03-22T12:00:56;3.95;;;1.02;;
68985;SDS011;56035;37.534;-122.308;2024-03-22T12:03:23;4.97;;;1.20;;
68985;SDS011;56035;37.534;-122.308;2024-03-22T12:05:49;4.38;;;1.15;;
68985;SDS011;56035;37.534;-122.308;2024-03-22T12:08:17;5.47;;;1.90;;
68985;SDS011;56035;37.534;-122.308;2024-03-22T12:10:43;5.43;;;1.00;;
68985;SDS011;56035;37.534;-122.308;2024-03-22T12:13:10;3.97;;;1.00;;
68985;SDS011;56035;37.534;-122.308;2024-03-22T12:15:36;4.13;;;1.40;;
68985;SDS011;56035;37.534;-122.308;2024-03-22T12:18:03;3.85;;;1.33;;
68985;SDS011;56035;37.534;-122.308;2024-03-22T12:20:29;3.47;;;1.05;;
68985;SDS011;56035;37.534;-122.308;2024-03-22T12:22:55;4.47;;;1.08;;
68985;SDS011;56035;37.534;-122.308;2024-03-22T12:25:22;3.97;;;0.90;;
68985;SDS011;56035;37.534;-122.308;2024-03-22T12:27:49;2.50;;;1.00;;
68985;SDS011;56035;37.534;-122.308;2024-03-22T12:30:16;4.38;;;1.05;;
68985;SDS011;56035;37.534;-122.308;2024-03-22T12:32:42;2.80;;;1.00;;
68985;SDS011;56035;37.534;-122.308;2024-03-22T12:35:09;4.40;;;1.10;;
68985;SDS011;56035;37.534;-122.308;2024-03-22T12:37:35;4.78;;;1.25;;
68985;SDS011;56035;37.534;-122.308;2024-03-22T12:40:02;2.75;;;0.90;;
68985;SDS011;56035;37.534;-122.308;2024-03-22T12:42:28;6.60;;;1.23;;
68985;SDS011;56035;37.534;-122.308;2024-03-22T12:44:54;4.15;;;0.80;;
68985;SDS011;56035;37.534;-122.308;2024-03-22T12:47:21;3.15;;;0.77;;
68985;SDS011;56035;37.534;-122.308;2024-03-22T12:49:47;4.78;;;1.00;;
68985;SDS011;56035;37.534;-122.308;2024-03-22T12:52:13;4.15;;;0.85;;
68985;SDS011;56035;37.534;-122.308;2024-03-22T12:54:40;3.72;;;1.08;;
68985;SDS011;56035;37.534;-122.308;2024-03-22T12:57:06;3.72;;;0.90;;
68985;SDS011;56035;37.534;-122.308;2024-03-22T12:59:33;3.30;;;0.95;;
68985;SDS011;56035;37.534;-122.308;2024-03-22T13:01:59;3.10;;;0.90;;
68985;SDS011;56035;37.534;-122.308;2024-03-22T13:06:52;4.23;;;1.10;;
68985;SDS011;56035;37.534;-122.308;2024-03-22T13:09:19;3.35;;;1.50;;
68985;SDS011;56035;37.534;-122.308;2024-03-22T13:11:47;2.50;;;1.00;;
68985;SDS011;56035;37.534;-122.308;2024-03-22T13:16:40;3.90;;;1.10;;
68985;SDS011;56035;37.534;-122.308;2024-03-22T13:19:06;3.17;;;1.17;;
68985;SDS011;56035;37.534;-122.308;2024-03-22T13:21:38;4.43;;;1.20;;
68985;SDS011;56035;37.534;-122.308;2024-03-22T13:24:05;2.70;;;1.10;;
68985;SDS011;56035;37.534;-122.308;2024-03-22T13:26:31;3.45;;;1.30;;
68985;SDS011;56035;37.534;-122.308;2024-03-22T13:28:58;5.15;;;1.27;;
68985;SDS011;56035;37.534;-122.308;2024-03-22T13:31:24;5.03;;;1.10;;
68985;SDS011;56035;37.534;-122.308;2024-03-22T13:33:50;4.78;;;1.40;;
68985;SDS011;56035;37.534;-122.308;2024-03-22T13:36:17;4.35;;;1.23;;
68985;SDS011;56035;37.534;-122.308;2024-03-22T13:38:43;4.13;;;1.17;;
68985;SDS011;56035;37.534;-122.308;2024-03-22T13:41:10;5.03;;;1.27;;
68985;SDS011;56035;37.534;-122.308;2024-03-22T13:43:36;3.10;;;1.40;;
68985;SDS011;56035;37.534;-122.308;2024-03-22T13:46:05;4.23;;;1.60;;
68985;SDS011;56035;37.534;-122.308;2024-03-22T13:48:51;5.73;;;2.03;;
68985;SDS011;56035;37.534;-122.308;2024-03-22T13:51:18;6.15;;;1.92;;
68985;SDS011;56035;37.534;-122.308;2024-03-22T13:53:44;7.30;;;2.75;;
68985;SDS011;56035;37.534;-122.308;2024-03-22T13:56:10;8.68;;;4.03;;
68985;SDS011;56035;37.534;-122.308;2024-03-22T13:58:37;12.98;;;4.80;;
68985;SDS011;56035;37.534;-122.308;2024-03-22T14:01:03;12.02;;;5.10;;
68985;SDS011;56035;37.534;-122.308;2024-03-22T14:05:56;10.40;;;3.43;;
68985;SDS011;56035;37.534;-122.308;2024-03-22T14:08:22;8.00;;;3.78;;
68985;SDS011;56035;37.534;-122.308;2024-03-22T14:10:49;12.20;;;4.35;;
68985;SDS011;56035;37.534;-122.308;2024-03-22T14:13:15;9.68;;;3.60;;
68985;SDS011;56035;37.534;-122.308;2024-03-22T14:15:41;10.55;;;3.53;;
68985;SDS011;56035;37.534;-122.308;2024-03-22T14:18:08;9.20;;;4.05;;
68985;SDS011;56035;37.534;-122.308;2024-03-22T14:20:35;7.80;;;3.58;;
68985;SDS011;56035;37.534;-122.308;2024-03-22T14:23:01;7.72;;;2.83;;
68985;SDS011;56035;37.534;-122.308;2024-03-22T14:25:29;6.80;;;2.20;;
68985;SDS011;56035;37.534;-122.308;2024-03-22T14:27:56;7.03;;;2.40;;
68985;SDS011;56035;37.534;-122.308;2024-03-22T14:30:23;7.68;;;2.78;;
68985;SDS011;56035;37.534;-122.308;2024-03-22T14:32:50;5.07;;;2.20;;
68985;SDS011;56035;37.534;-122.308;2024-03-22T14:35:17;7.77;;;2.20;;
68985;SDS011;56035;37.534;-122.308;2024-03-22T14:37:44;5.85;;;2.30;;
68985;SDS011;56035;37.534;-122.308;2024-03-22T14:40:10;5.82;;;2.45;;
68985;SDS011;56035;37.534;-122.308;2024-03-22T14:42:37;6.10;;;2.45;;
68985;SDS011;56035;37.534;-122.308;2024-03-22T14:45:03;6.45;;;2.40;;
68985;SDS011;56035;37.534;-122.308;2024-03-22T14:47:30;8.93;;;2.88;;
68985;SDS011;56035;37.534;-122.308;2024-03-22T14:49:56;6.80;;;2.45;;
68985;SDS011;56035;37.534;-122.308;2024-03-22T14:52:23;3.20;;;2.00;;
68985;SDS011;56035;37.534;-122.308;2024-03-22T14:54:51;5.22;;;2.42;;
68985;SDS011;56035;37.534;-122.308;2024-03-22T14:57:18;6.90;;;1.93;;